sensor_id;sensor_type;location;lat;lon;timestamp;P1;durP1;ratioP1;P2;durP2;ratioP2
68757;SDS011;55747;51.998;4.466;2022-09-29T00:02:16;7.63;;;4.53;;
68757;SDS011;55747;51.998;4.466;2022-09-29T00:04:42;8.50;;;5.07;;
68757;SDS011;55747;51.998;4.466;2022-09-29T00:07:07;6.97;;;5.13;;
68757;SDS011;55747;51.998;4.466;2022-09-29T00:09:32;8.73;;;5.35;;
68757;SDS011;55747;51.998;4.466;2022-09-29T00:12:01;9.32;;;6.07;;
68757;SDS011;55747;51.998;4.466;2022-09-29T00:14:26;11.90;;;6.60;;
68757;SDS011;55747;51.998;4.466;2022-09-29T00:16:51;11.48;;;7.18;;
68757;SDS011;55747;51.998;4.466;2022-09-29T00:19:17;13.10;;;7.80;;
68757;SDS011;55747;51.998;4.466;2022-09-29T00:21:43;14.45;;;7.13;;
68757;SDS011;55747;51.998;4.466;2022-09-29T00:24:09;10.95;;;7.20;;
68757;SDS011;55747;51.998;4.466;2022-09-29T00:26:34;10.05;;;6.75;;
68757;SDS011;55747;51.998;4.466;2022-09-29T00:28:59;14.00;;;8.20;;
68757;SDS011;55747;51.998;4.466;2022-09-29T00:31:26;19.40;;;8.40;;
68757;SDS011;55747;51.998;4.466;2022-09-29T00:33:53;11.18;;;8.32;;
68757;SDS011;55747;51.998;4.466;2022-09-29T00:36:19;17.45;;;9.93;;
68757;SDS011;55747;51.998;4.466;2022-09-29T00:38:46;14.23;;;9.50;;
68757;SDS011;55747;51.998;4.466;2022-09-29T00:41:14;15.07;;;9.57;;
68757;SDS011;55747;51.998;4.466;2022-09-29T00:46:23;14.98;;;9.82;;
68757;SDS011;55747;51.998;4.466;2022-09-29T00:48:54;14.20;;;9.90;;
68757;SDS011;55747;51.998;4.466;2022-09-29T00:51:26;18.35;;;10.15;;
68757;SDS011;55747;51.998;4.466;2022-09-29T00:53:53;13.60;;;9.57;;
68757;SDS011;55747;51.998;4.466;2022-09-29T00:56:29;17.30;;;10.02;;
68757;SDS011;55747;51.998;4.466;2022-09-29T00:58:58;15.52;;;10.15;;
68757;SDS011;55747;51.998;4.466;2022-09-29T01:01:27;14.73;;;9.73;;
68757;SDS011;55747;51.998;4.466;2022-09-29T01:03:56;17.27;;;10.48;;
68757;SDS011;55747;51.998;4.466;2022-09-29T01:06:34;19.58;;;11.57;;
68757;SDS011;55747;51.998;4.466;2022-09-29T01:09:04;16.15;;;10.77;;
68757;SDS011;55747;51.998;4.466;2022-09-29T01:11:33;17.35;;;10.85;;
68757;SDS011;55747;51.998;4.466;2022-09-29T01:13:59;17.67;;;11.70;;
68757;SDS011;55747;51.998;4.466;2022-09-29T01:16:29;18.63;;;12.18;;
68757;SDS011;55747;51.998;4.466;2022-09-29T01:18:57;19.25;;;11.68;;
68757;SDS011;55747;51.998;4.466;2022-09-29T01:30:17;23.55;;;13.48;;
68757;SDS011;55747;51.998;4.466;2022-09-29T01:32:59;24.60;;;13.18;;
68757;SDS011;55747;51.998;4.466;2022-09-29T01:36:11;22.48;;;12.35;;
68757;SDS011;55747;51.998;4.466;2022-09-29T01:39:06;19.20;;;12.15;;
68757;SDS011;55747;51.998;4.466;2022-09-29T01:42:05;21.30;;;12.93;;
68757;SDS011;55747;51.998;4.466;2022-09-29T01:47:18;22.02;;;13.07;;
68757;SDS011;55747;51.998;4.466;2022-09-29T01:49:50;27.67;;;13.63;;
68757;SDS011;55747;51.998;4.466;2022-09-29T01:52:22;23.65;;;13.63;;
68757;SDS011;55747;51.998;4.466;2022-09-29T01:54:56;26.73;;;14.85;;
68757;SDS011;55747;51.998;4.466;2022-09-29T01:57:27;27.95;;;14.90;;
68757;SDS011;55747;51.998;4.466;2022-09-29T02:02:32;25.58;;;14.75;;
68757;SDS011;55747;51.998;4.466;2022-09-29T02:05:03;23.38;;;15.25;;
68757;SDS011;55747;51.998;4.466;2022-09-29T02:07:35;27.98;;;15.27;;
68757;SDS011;55747;51.998;4.466;2022-09-29T02:10:27;24.88;;;15.43;;
68757;SDS011;55747;51.998;4.466;2022-09-29T02:12:55;31.42;;;16.00;;
68757;SDS011;55747;51.998;4.466;2022-09-29T02:15:28;26.40;;;15.90;;
68757;SDS011;55747;51.998;4.466;2022-09-29T02:17:58;27.67;;;14.80;;
68757;SDS011;55747;51.998;4.466;2022-09-29T02:20:27;27.50;;;15.00;;
68757;SDS011;55747;51.998;4.466;2022-09-29T02:22:52;24.15;;;15.02;;
68757;SDS011;55747;51.998;4.466;2022-09-29T02:25:19;27.63;;;15.40;;
68757;SDS011;55747;51.998;4.466;2022-09-29T02:27:47;25.45;;;14.15;;
68757;SDS011;55747;51.998;4.466;2022-09-29T02:30:14;25.25;;;15.07;;
68757;SDS011;55747;51.998;4.466;2022-09-29T02:32:39;27.80;;;15.48;;
68757;SDS011;55747;51.998;4.466;2022-09-29T02:35:05;25.65;;;15.18;;
68757;SDS011;55747;51.998;4.466;2022-09-29T02:37:43;27.77;;;14.05;;
68757;SDS011;55747;51.998;4.466;2022-09-29T02:40:33;25.33;;;14.45;;
68757;SDS011;55747;51.998;4.466;2022-09-29T02:46:01;27.30;;;15.40;;
68757;SDS011;55747;51.998;4.466;2022-09-29T02:51:26;25.50;;;15.05;;
68757;SDS011;55747;51.998;4.466;2022-09-29T02:54:00;28.73;;;15.38;;
68757;SDS011;55747;51.998;4.466;2022-09-29T02:56:40;29.95;;;16.10;;
68757;SDS011;55747;51.998;4.466;2022-09-29T02:59:26;35.55;;;18.35;;
68757;SDS011;55747;51.998;4.466;2022-09-29T03:01:59;35.38;;;18.92;;
68757;SDS011;55747;51.998;4.466;2022-09-29T03:04:25;39.00;;;20.65;;
68757;SDS011;55747;51.998;4.466;2022-09-29T03:06:52;44.88;;;21.40;;
68757;SDS011;55747;51.998;4.466;2022-09-29T03:09:18;41.22;;;21.75;;
68757;SDS011;55747;51.998;4.466;2022-09-29T03:11:43;45.65;;;21.30;;
68757;SDS011;55747;51.998;4.466;2022-09-29T03:14:08;44.13;;;22.40;;
68757;SDS011;55747;51.998;4.466;2022-09-29T03:16:34;47.80;;;23.17;;
68757;SDS011;55747;51.998;4.466;2022-09-29T03:19:00;46.40;;;23.02;;
68757;SDS011;55747;51.998;4.466;2022-09-29T03:21:26;50.10;;;23.55;;
68757;SDS011;55747;51.998;4.466;2022-09-29T03:23:52;49.45;;;25.38;;
68757;SDS011;55747;51.998;4.466;2022-09-29T03:26:17;50.55;;;25.88;;
68757;SDS011;55747;51.998;4.466;2022-09-29T03:28:42;49.67;;;24.95;;
68757;SDS011;55747;51.998;4.466;2022-09-29T03:31:08;49.40;;;25.27;;
68757;SDS011;55747;51.998;4.466;2022-09-29T03:33:37;51.40;;;26.23;;
68757;SDS011;55747;51.998;4.466;2022-09-29T03:36:04;55.35;;;27.10;;
68757;SDS011;55747;51.998;4.466;2022-09-29T03:38:33;53.22;;;25.92;;
68757;SDS011;55747;51.998;4.466;2022-09-29T03:40:59;44.53;;;23.27;;
68757;SDS011;55747;51.998;4.466;2022-09-29T03:43:24;50.90;;;25.23;;
68757;SDS011;55747;51.998;4.466;2022-09-29T03:45:50;47.90;;;24.27;;
68757;SDS011;55747;51.998;4.466;2022-09-29T03:48:18;46.60;;;22.60;;
68757;SDS011;55747;51.998;4.466;2022-09-29T03:50:44;47.38;;;23.25;;
68757;SDS011;55747;51.998;4.466;2022-09-29T03:53:13;41.30;;;22.17;;
68757;SDS011;55747;51.998;4.466;2022-09-29T03:55:39;47.65;;;25.38;;
68757;SDS011;55747;51.998;4.466;2022-09-29T03:58:09;44.28;;;23.63;;
68757;SDS011;55747;51.998;4.466;2022-09-29T04:00:35;46.00;;;23.83;;
68757;SDS011;55747;51.998;4.466;2022-09-29T04:03:00;44.07;;;22.37;;
68757;SDS011;55747;51.998;4.466;2022-09-29T04:05:25;41.25;;;21.15;;
68757;SDS011;55747;51.998;4.466;2022-09-29T04:07:53;44.20;;;21.58;;
68757;SDS011;55747;51.998;4.466;2022-09-29T04:10:18;36.95;;;20.10;;
68757;SDS011;55747;51.998;4.466;2022-09-29T04:12:43;39.85;;;20.48;;
68757;SDS011;55747;51.998;4.466;2022-09-29T04:15:09;39.10;;;19.70;;
68757;SDS011;55747;51.998;4.466;2022-09-29T04:17:34;48.85;;;22.25;;
68757;SDS011;55747;51.998;4.466;2022-09-29T04:19:59;41.53;;;20.67;;
68757;SDS011;55747;51.998;4.466;2022-09-29T04:22:25;41.22;;;21.48;;
68757;SDS011;55747;51.998;4.466;2022-09-29T04:24:50;40.03;;;21.25;;
68757;SDS011;55747;51.998;4.466;2022-09-29T04:27:16;39.55;;;21.77;;
68757;SDS011;55747;51.998;4.466;2022-09-29T04:29:42;46.30;;;22.25;;
68757;SDS011;55747;51.998;4.466;2022-09-29T04:32:07;45.75;;;22.60;;
68757;SDS011;55747;51.998;4.466;2022-09-29T04:34:32;40.20;;;19.50;;
68757;SDS011;55747;51.998;4.466;2022-09-29T04:36:58;36.58;;;19.13;;
68757;SDS011;55747;51.998;4.466;2022-09-29T04:39:24;37.03;;;18.92;;
68757;SDS011;55747;51.998;4.466;2022-09-29T04:41:49;37.70;;;19.13;;
68757;SDS011;55747;51.998;4.466;2022-09-29T04:44:15;36.70;;;18.65;;
68757;SDS011;55747;51.998;4.466;2022-09-29T04:46:40;35.85;;;17.48;;
68757;SDS011;55747;51.998;4.466;2022-09-29T04:49:06;30.48;;;17.08;;
68757;SDS011;55747;51.998;4.466;2022-09-29T04:51:31;33.75;;;17.10;;
68757;SDS011;55747;51.998;4.466;2022-09-29T04:53:57;40.72;;;20.83;;
68757;SDS011;55747;51.998;4.466;2022-09-29T04:56:25;43.45;;;19.98;;
68757;SDS011;55747;51.998;4.466;2022-09-29T04:58:55;39.78;;;19.65;;
68757;SDS011;55747;51.998;4.466;2022-09-29T05:01:20;43.17;;;23.05;;
68757;SDS011;55747;51.998;4.466;2022-09-29T05:03:46;43.97;;;22.35;;
68757;SDS011;55747;51.998;4.466;2022-09-29T05:06:11;51.35;;;24.00;;
68757;SDS011;55747;51.998;4.466;2022-09-29T05:08:37;51.90;;;26.55;;
68757;SDS011;55747;51.998;4.466;2022-09-29T05:11:06;55.72;;;28.40;;
68757;SDS011;55747;51.998;4.466;2022-09-29T05:13:32;52.97;;;27.65;;
68757;SDS011;55747;51.998;4.466;2022-09-29T05:15:58;51.55;;;25.83;;
68757;SDS011;55747;51.998;4.466;2022-09-29T05:18:25;49.30;;;25.42;;
68757;SDS011;55747;51.998;4.466;2022-09-29T05:20:50;45.78;;;23.83;;
68757;SDS011;55747;51.998;4.466;2022-09-29T05:23:16;52.47;;;28.27;;
68757;SDS011;55747;51.998;4.466;2022-09-29T05:25:41;53.78;;;27.45;;
68757;SDS011;55747;51.998;4.466;2022-09-29T05:28:08;54.67;;;28.10;;
68757;SDS011;55747;51.998;4.466;2022-09-29T05:30:37;55.38;;;28.70;;
68757;SDS011;55747;51.998;4.466;2022-09-29T05:33:03;52.58;;;27.98;;
68757;SDS011;55747;51.998;4.466;2022-09-29T05:35:29;56.20;;;27.95;;
68757;SDS011;55747;51.998;4.466;2022-09-29T05:37:55;50.13;;;27.33;;
68757;SDS011;55747;51.998;4.466;2022-09-29T05:40:26;59.15;;;28.83;;
68757;SDS011;55747;51.998;4.466;2022-09-29T05:42:51;60.22;;;30.02;;
68757;SDS011;55747;51.998;4.466;2022-09-29T05:45:17;56.25;;;29.23;;
68757;SDS011;55747;51.998;4.466;2022-09-29T05:47:43;53.00;;;28.95;;
68757;SDS011;55747;51.998;4.466;2022-09-29T05:50:12;53.90;;;28.40;;
68757;SDS011;55747;51.998;4.466;2022-09-29T05:52:38;51.10;;;26.02;;
68757;SDS011;55747;51.998;4.466;2022-09-29T05:55:04;51.97;;;26.45;;
68757;SDS011;55747;51.998;4.466;2022-09-29T05:57:33;49.20;;;26.70;;
68757;SDS011;55747;51.998;4.466;2022-09-29T05:59:59;54.42;;;28.80;;
68757;SDS011;55747;51.998;4.466;2022-09-29T06:02:25;59.75;;;31.38;;
68757;SDS011;55747;51.998;4.466;2022-09-29T06:04:50;67.95;;;32.97;;
68757;SDS011;55747;51.998;4.466;2022-09-29T06:07:15;65.93;;;32.50;;
68757;SDS011;55747;51.998;4.466;2022-09-29T06:09:41;72.88;;;35.85;;
68757;SDS011;55747;51.998;4.466;2022-09-29T06:12:06;77.03;;;37.13;;
68757;SDS011;55747;51.998;4.466;2022-09-29T06:14:31;74.63;;;37.00;;
68757;SDS011;55747;51.998;4.466;2022-09-29T06:16:57;74.22;;;36.42;;
68757;SDS011;55747;51.998;4.466;2022-09-29T06:19:22;59.42;;;34.22;;
68757;SDS011;55747;51.998;4.466;2022-09-29T06:21:47;50.25;;;30.58;;
68757;SDS011;55747;51.998;4.466;2022-09-29T06:24:13;35.35;;;25.52;;
68757;SDS011;55747;51.998;4.466;2022-09-29T06:26:38;27.73;;;22.00;;
68757;SDS011;55747;51.998;4.466;2022-09-29T06:29:03;23.80;;;19.92;;
68757;SDS011;55747;51.998;4.466;2022-09-29T06:31:29;21.00;;;17.35;;
68757;SDS011;55747;51.998;4.466;2022-09-29T06:33:59;18.50;;;14.55;;
68757;SDS011;55747;51.998;4.466;2022-09-29T06:39:19;13.95;;;12.18;;
68757;SDS011;55747;51.998;4.466;2022-09-29T06:41:45;13.07;;;11.48;;
68757;SDS011;55747;51.998;4.466;2022-09-29T06:44:18;14.07;;;11.88;;
68757;SDS011;55747;51.998;4.466;2022-09-29T06:46:44;19.25;;;13.25;;
68757;SDS011;55747;51.998;4.466;2022-09-29T06:49:10;16.45;;;12.95;;
68757;SDS011;55747;51.998;4.466;2022-09-29T06:51:36;15.90;;;13.48;;
68757;SDS011;55747;51.998;4.466;2022-09-29T06:54:02;19.10;;;13.50;;
68757;SDS011;55747;51.998;4.466;2022-09-29T06:56:27;25.40;;;15.30;;
68757;SDS011;55747;51.998;4.466;2022-09-29T06:58:53;21.65;;;16.98;;
68757;SDS011;55747;51.998;4.466;2022-09-29T07:04:14;25.63;;;18.23;;
68757;SDS011;55747;51.998;4.466;2022-09-29T07:09:12;24.58;;;18.75;;
68757;SDS011;55747;51.998;4.466;2022-09-29T07:11:40;24.42;;;18.42;;
68757;SDS011;55747;51.998;4.466;2022-09-29T07:14:11;24.57;;;18.67;;
68757;SDS011;55747;51.998;4.466;2022-09-29T07:16:41;29.33;;;18.35;;
68757;SDS011;55747;51.998;4.466;2022-09-29T07:19:07;25.02;;;17.92;;
68757;SDS011;55747;51.998;4.466;2022-09-29T07:21:34;22.02;;;15.45;;
68757;SDS011;55747;51.998;4.466;2022-09-29T07:24:02;17.23;;;12.13;;
68757;SDS011;55747;51.998;4.466;2022-09-29T07:26:28;54.08;;;14.40;;
68757;SDS011;55747;51.998;4.466;2022-09-29T07:28:54;12.93;;;9.82;;
68757;SDS011;55747;51.998;4.466;2022-09-29T07:31:20;14.10;;;9.88;;
68757;SDS011;55747;51.998;4.466;2022-09-29T07:33:46;12.50;;;9.63;;
68757;SDS011;55747;51.998;4.466;2022-09-29T07:36:13;13.00;;;9.43;;
68757;SDS011;55747;51.998;4.466;2022-09-29T07:38:40;63.05;;;14.20;;
68757;SDS011;55747;51.998;4.466;2022-09-29T07:41:07;16.27;;;8.95;;
68757;SDS011;55747;51.998;4.466;2022-09-29T07:43:35;12.75;;;8.80;;
68757;SDS011;55747;51.998;4.466;2022-09-29T07:46:01;13.48;;;9.10;;
68757;SDS011;55747;51.998;4.466;2022-09-29T07:48:27;15.32;;;8.63;;
68757;SDS011;55747;51.998;4.466;2022-09-29T07:51:00;11.10;;;9.00;;
68757;SDS011;55747;51.998;4.466;2022-09-29T07:53:30;14.02;;;9.00;;
68757;SDS011;55747;51.998;4.466;2022-09-29T07:56:10;10.27;;;9.10;;
68757;SDS011;55747;51.998;4.466;2022-09-29T07:58:42;13.43;;;8.60;;
68757;SDS011;55747;51.998;4.466;2022-09-29T08:01:09;12.82;;;8.70;;
68757;SDS011;55747;51.998;4.466;2022-09-29T08:03:40;10.05;;;8.32;;
68757;SDS011;55747;51.998;4.466;2022-09-29T08:06:07;9.55;;;8.55;;
68757;SDS011;55747;51.998;4.466;2022-09-29T08:08:36;11.73;;;8.10;;
68757;SDS011;55747;51.998;4.466;2022-09-29T08:11:13;11.68;;;7.97;;
68757;SDS011;55747;51.998;4.466;2022-09-29T08:13:40;11.85;;;8.00;;
68757;SDS011;55747;51.998;4.466;2022-09-29T08:16:06;11.10;;;7.95;;
68757;SDS011;55747;51.998;4.466;2022-09-29T08:18:35;8.48;;;7.57;;
68757;SDS011;55747;51.998;4.466;2022-09-29T08:21:01;12.32;;;7.85;;
68757;SDS011;55747;51.998;4.466;2022-09-29T08:23:28;9.43;;;7.38;;
68757;SDS011;55747;51.998;4.466;2022-09-29T08:26:02;12.48;;;7.38;;
68757;SDS011;55747;51.998;4.466;2022-09-29T08:28:30;9.18;;;7.30;;
68757;SDS011;55747;51.998;4.466;2022-09-29T08:31:00;10.85;;;8.40;;
68757;SDS011;55747;51.998;4.466;2022-09-29T08:33:26;8.70;;;7.55;;
68757;SDS011;55747;51.998;4.466;2022-09-29T08:35:55;10.47;;;7.80;;
68757;SDS011;55747;51.998;4.466;2022-09-29T08:38:22;10.32;;;7.82;;
68757;SDS011;55747;51.998;4.466;2022-09-29T08:40:48;10.32;;;7.70;;
68757;SDS011;55747;51.998;4.466;2022-09-29T08:43:14;9.50;;;7.10;;
68757;SDS011;55747;51.998;4.466;2022-09-29T08:45:42;9.68;;;7.43;;
68757;SDS011;55747;51.998;4.466;2022-09-29T08:50:41;10.25;;;6.82;;
68757;SDS011;55747;51.998;4.466;2022-09-29T08:53:13;11.75;;;7.15;;
68757;SDS011;55747;51.998;4.466;2022-09-29T08:58:11;8.35;;;6.70;;
68757;SDS011;55747;51.998;4.466;2022-09-29T09:09:18;7.60;;;5.32;;
68757;SDS011;55747;51.998;4.466;2022-09-29T09:12:00;8.77;;;5.32;;
68757;SDS011;55747;51.998;4.466;2022-09-29T09:22:56;6.22;;;4.10;;
68757;SDS011;55747;51.998;4.466;2022-09-29T09:33:43;3.53;;;2.85;;
68757;SDS011;55747;51.998;4.466;2022-09-29T09:36:21;7.05;;;3.90;;
68757;SDS011;55747;51.998;4.466;2022-09-29T09:39:05;5.80;;;4.50;;
68757;SDS011;55747;51.998;4.466;2022-09-29T09:41:40;4.10;;;3.63;;
68757;SDS011;55747;51.998;4.466;2022-09-29T09:44:14;3.85;;;3.25;;
68757;SDS011;55747;51.998;4.466;2022-09-29T09:49:31;5.43;;;2.80;;
68757;SDS011;55747;51.998;4.466;2022-09-29T09:52:13;5.30;;;2.20;;
68757;SDS011;55747;51.998;4.466;2022-09-29T09:54:48;4.47;;;3.17;;
68757;SDS011;55747;51.998;4.466;2022-09-29T09:57:34;6.25;;;3.47;;
68757;SDS011;55747;51.998;4.466;2022-09-29T10:02:45;6.05;;;2.92;;
68757;SDS011;55747;51.998;4.466;2022-09-29T10:07:39;5.15;;;2.78;;
68757;SDS011;55747;51.998;4.466;2022-09-29T10:10:06;5.05;;;2.90;;
68757;SDS011;55747;51.998;4.466;2022-09-29T10:12:40;6.40;;;3.40;;
68757;SDS011;55747;51.998;4.466;2022-09-29T10:15:13;4.10;;;3.50;;
68757;SDS011;55747;51.998;4.466;2022-09-29T10:17:43;4.90;;;3.22;;
68757;SDS011;55747;51.998;4.466;2022-09-29T10:20:18;3.38;;;2.90;;
68757;SDS011;55747;51.998;4.466;2022-09-29T10:23:19;5.47;;;3.50;;
68757;SDS011;55747;51.998;4.466;2022-09-29T10:25:50;6.15;;;3.75;;
68757;SDS011;55747;51.998;4.466;2022-09-29T10:28:20;3.47;;;3.17;;
68757;SDS011;55747;51.998;4.466;2022-09-29T10:30:47;4.90;;;2.85;;
68757;SDS011;55747;51.998;4.466;2022-09-29T10:33:14;4.47;;;2.00;;
68757;SDS011;55747;51.998;4.466;2022-09-29T10:35:43;2.85;;;2.58;;
68757;SDS011;55747;51.998;4.466;2022-09-29T10:38:17;4.38;;;2.40;;
68757;SDS011;55747;51.998;4.466;2022-09-29T10:40:55;2.15;;;1.92;;
68757;SDS011;55747;51.998;4.466;2022-09-29T10:45:58;2.67;;;2.15;;
68757;SDS011;55747;51.998;4.466;2022-09-29T10:48:24;2.63;;;2.10;;
68757;SDS011;55747;51.998;4.466;2022-09-29T10:51:13;2.40;;;2.20;;
68757;SDS011;55747;51.998;4.466;2022-09-29T10:53:40;2.80;;;2.10;;
68757;SDS011;55747;51.998;4.466;2022-09-29T10:56:19;3.58;;;2.30;;
68757;SDS011;55747;51.998;4.466;2022-09-29T10:59:20;3.33;;;2.45;;
68757;SDS011;55747;51.998;4.466;2022-09-29T11:01:43;2.78;;;2.40;;
68757;SDS011;55747;51.998;4.466;2022-09-29T11:04:18;3.45;;;2.10;;
68757;SDS011;55747;51.998;4.466;2022-09-29T11:06:54;2.87;;;1.90;;
68757;SDS011;55747;51.998;4.466;2022-09-29T11:14:25;2.83;;;1.80;;
68757;SDS011;55747;51.998;4.466;2022-09-29T11:16:54;4.03;;;1.80;;
68757;SDS011;55747;51.998;4.466;2022-09-29T11:19:22;3.05;;;2.08;;
68757;SDS011;55747;51.998;4.466;2022-09-29T11:29:43;4.72;;;1.42;;
68757;SDS011;55747;51.998;4.466;2022-09-29T11:40:10;3.50;;;1.40;;
68757;SDS011;55747;51.998;4.466;2022-09-29T11:42:50;1.88;;;1.20;;
68757;SDS011;55747;51.998;4.466;2022-09-29T11:45:40;2.20;;;1.33;;
68757;SDS011;55747;51.998;4.466;2022-09-29T11:48:27;3.40;;;1.27;;
68757;SDS011;55747;51.998;4.466;2022-09-29T12:04:44;6.15;;;1.90;;
68757;SDS011;55747;51.998;4.466;2022-09-29T12:07:33;2.58;;;1.52;;
68757;SDS011;55747;51.998;4.466;2022-09-29T12:12:56;3.60;;;1.70;;
68757;SDS011;55747;51.998;4.466;2022-09-29T12:15:50;2.33;;;1.50;;
68757;SDS011;55747;51.998;4.466;2022-09-29T12:18:27;2.00;;;1.38;;
68757;SDS011;55747;51.998;4.466;2022-09-29T12:21:16;2.58;;;1.35;;
68757;SDS011;55747;51.998;4.466;2022-09-29T12:23:48;3.22;;;1.70;;
68757;SDS011;55747;51.998;4.466;2022-09-29T12:26:18;2.50;;;1.52;;
68757;SDS011;55747;51.998;4.466;2022-09-29T12:28:52;2.25;;;1.60;;
68757;SDS011;55747;51.998;4.466;2022-09-29T12:31:25;2.58;;;1.50;;
68757;SDS011;55747;51.998;4.466;2022-09-29T12:33:57;1.60;;;1.30;;
68757;SDS011;55747;51.998;4.466;2022-09-29T12:36:33;2.40;;;1.55;;
68757;SDS011;55747;51.998;4.466;2022-09-29T12:39:28;3.55;;;1.80;;
68757;SDS011;55747;51.998;4.466;2022-09-29T12:47:37;5.10;;;1.60;;
68757;SDS011;55747;51.998;4.466;2022-09-29T12:50:17;2.03;;;1.40;;
68757;SDS011;55747;51.998;4.466;2022-09-29T12:55:26;104.40;;;9.65;;
68757;SDS011;55747;51.998;4.466;2022-09-29T12:58:05;10.60;;;2.25;;
68757;SDS011;55747;51.998;4.466;2022-09-29T13:00:38;671.45;;;78.53;;
68757;SDS011;55747;51.998;4.466;2022-09-29T13:03:33;8.38;;;1.95;;
68757;SDS011;55747;51.998;4.466;2022-09-29T13:06:25;2.17;;;1.20;;
68757;SDS011;55747;51.998;4.466;2022-09-29T13:09:35;31.95;;;4.03;;
68757;SDS011;55747;51.998;4.466;2022-09-29T13:12:15;2.55;;;1.40;;
68757;SDS011;55747;51.998;4.466;2022-09-29T13:17:57;348.20;;;36.65;;
68757;SDS011;55747;51.998;4.466;2022-09-29T13:29:00;6.68;;;1.20;;
68757;SDS011;55747;51.998;4.466;2022-09-29T13:31:29;8.20;;;1.70;;
68757;SDS011;55747;51.998;4.466;2022-09-29T13:33:59;4.65;;;1.30;;
68757;SDS011;55747;51.998;4.466;2022-09-29T13:36:28;3.55;;;1.40;;
68757;SDS011;55747;51.998;4.466;2022-09-29T13:39:00;2.30;;;1.40;;
68757;SDS011;55747;51.998;4.466;2022-09-29T13:46:38;131.35;;;13.38;;
68757;SDS011;55747;51.998;4.466;2022-09-29T13:57:06;2.05;;;1.48;;
68757;SDS011;55747;51.998;4.466;2022-09-29T14:04:54;3.90;;;1.20;;
68757;SDS011;55747;51.998;4.466;2022-09-29T14:10:59;5.10;;;1.17;;
68757;SDS011;55747;51.998;4.466;2022-09-29T14:16:31;2.53;;;1.13;;
68757;SDS011;55747;51.998;4.466;2022-09-29T14:19:04;2.97;;;1.27;;
68757;SDS011;55747;51.998;4.466;2022-09-29T14:29:42;3.77;;;1.10;;
68757;SDS011;55747;51.998;4.466;2022-09-29T14:34:43;5.17;;;1.20;;
68757;SDS011;55747;51.998;4.466;2022-09-29T14:37:17;6.80;;;1.23;;
68757;SDS011;55747;51.998;4.466;2022-09-29T14:39:46;1.05;;;0.85;;
68757;SDS011;55747;51.998;4.466;2022-09-29T14:42:32;1.88;;;1.00;;
68757;SDS011;55747;51.998;4.466;2022-09-29T14:44:58;2.15;;;1.10;;
68757;SDS011;55747;51.998;4.466;2022-09-29T14:47:47;1.30;;;1.02;;
68757;SDS011;55747;51.998;4.466;2022-09-29T14:50:46;1.80;;;0.80;;
68757;SDS011;55747;51.998;4.466;2022-09-29T15:02:31;2.72;;;1.40;;
68757;SDS011;55747;51.998;4.466;2022-09-29T15:05:02;5.45;;;1.40;;
68757;SDS011;55747;51.998;4.466;2022-09-29T15:07:39;29.63;;;2.85;;
68757;SDS011;55747;51.998;4.466;2022-09-29T15:10:05;1.63;;;1.10;;
68757;SDS011;55747;51.998;4.466;2022-09-29T15:12:45;1.20;;;1.00;;
68757;SDS011;55747;51.998;4.466;2022-09-29T15:15:30;59.00;;;4.22;;
68757;SDS011;55747;51.998;4.466;2022-09-29T15:18:02;3.40;;;1.20;;
68757;SDS011;55747;51.998;4.466;2022-09-29T15:26:00;18.67;;;1.80;;
68757;SDS011;55747;51.998;4.466;2022-09-29T15:28:38;36.10;;;2.80;;
68757;SDS011;55747;51.998;4.466;2022-09-29T15:31:08;170.07;;;9.85;;
68757;SDS011;55747;51.998;4.466;2022-09-29T15:33:37;11.55;;;1.40;;
68757;SDS011;55747;51.998;4.466;2022-09-29T15:36:05;8.63;;;1.50;;
68757;SDS011;55747;51.998;4.466;2022-09-29T15:38:41;4.50;;;1.10;;
68757;SDS011;55747;51.998;4.466;2022-09-29T15:43:39;1.92;;;0.90;;
68757;SDS011;55747;51.998;4.466;2022-09-29T15:46:17;2.00;;;1.13;;
68757;SDS011;55747;51.998;4.466;2022-09-29T15:51:55;2.05;;;1.02;;
68757;SDS011;55747;51.998;4.466;2022-09-29T15:54:23;2.55;;;0.90;;
68757;SDS011;55747;51.998;4.466;2022-09-29T15:56:50;4.72;;;0.80;;
68757;SDS011;55747;51.998;4.466;2022-09-29T15:59:38;3.17;;;1.85;;
68757;SDS011;55747;51.998;4.466;2022-09-29T16:04:56;5.05;;;0.80;;
68757;SDS011;55747;51.998;4.466;2022-09-29T16:07:32;1.70;;;0.80;;
68757;SDS011;55747;51.998;4.466;2022-09-29T16:10:21;2.28;;;0.68;;
68757;SDS011;55747;51.998;4.466;2022-09-29T16:15:21;2.38;;;0.80;;
68757;SDS011;55747;51.998;4.466;2022-09-29T16:17:56;1.98;;;0.50;;
68757;SDS011;55747;51.998;4.466;2022-09-29T16:20:27;1.95;;;0.60;;
68757;SDS011;55747;51.998;4.466;2022-09-29T16:22:54;1.73;;;0.60;;
68757;SDS011;55747;51.998;4.466;2022-09-29T16:25:24;2.97;;;0.90;;
68757;SDS011;55747;51.998;4.466;2022-09-29T16:27:53;2.85;;;0.80;;
68757;SDS011;55747;51.998;4.466;2022-09-29T16:30:30;1.92;;;0.95;;
68757;SDS011;55747;51.998;4.466;2022-09-29T16:35:46;3.13;;;0.88;;
68757;SDS011;55747;51.998;4.466;2022-09-29T16:38:36;1.67;;;1.00;;
68757;SDS011;55747;51.998;4.466;2022-09-29T16:41:26;1.80;;;0.65;;
68757;SDS011;55747;51.998;4.466;2022-09-29T16:49:22;2.90;;;0.90;;
68757;SDS011;55747;51.998;4.466;2022-09-29T16:52:13;1.35;;;0.70;;
68757;SDS011;55747;51.998;4.466;2022-09-29T16:54:49;2.00;;;0.90;;
68757;SDS011;55747;51.998;4.466;2022-09-29T16:57:23;1.52;;;0.93;;
68757;SDS011;55747;51.998;4.466;2022-09-29T16:59:50;1.25;;;0.77;;
68757;SDS011;55747;51.998;4.466;2022-09-29T17:02:18;3.13;;;0.80;;
68757;SDS011;55747;51.998;4.466;2022-09-29T17:04:44;1.60;;;0.90;;
68757;SDS011;55747;51.998;4.466;2022-09-29T17:07:13;1.20;;;0.90;;
68757;SDS011;55747;51.998;4.466;2022-09-29T17:09:42;2.97;;;0.80;;
68757;SDS011;55747;51.998;4.466;2022-09-29T17:12:12;1.40;;;0.90;;
68757;SDS011;55747;51.998;4.466;2022-09-29T17:14:39;1.33;;;0.95;;
68757;SDS011;55747;51.998;4.466;2022-09-29T17:17:04;1.33;;;0.88;;
68757;SDS011;55747;51.998;4.466;2022-09-29T17:19:30;2.38;;;0.90;;
68757;SDS011;55747;51.998;4.466;2022-09-29T17:22:00;2.53;;;0.98;;
68757;SDS011;55747;51.998;4.466;2022-09-29T17:24:26;2.53;;;0.88;;
68757;SDS011;55747;51.998;4.466;2022-09-29T17:26:53;3.05;;;0.95;;
68757;SDS011;55747;51.998;4.466;2022-09-29T17:29:37;2.60;;;0.90;;
68757;SDS011;55747;51.998;4.466;2022-09-29T17:32:08;1.65;;;0.90;;
68757;SDS011;55747;51.998;4.466;2022-09-29T17:34:38;1.52;;;1.00;;
68757;SDS011;55747;51.998;4.466;2022-09-29T17:37:03;3.17;;;0.83;;
68757;SDS011;55747;51.998;4.466;2022-09-29T17:39:28;1.40;;;1.10;;
68757;SDS011;55747;51.998;4.466;2022-09-29T17:41:54;2.37;;;1.10;;
68757;SDS011;55747;51.998;4.466;2022-09-29T17:44:19;3.08;;;1.30;;
68757;SDS011;55747;51.998;4.466;2022-09-29T17:46:44;1.52;;;1.20;;
68757;SDS011;55747;51.998;4.466;2022-09-29T17:49:11;1.60;;;0.93;;
68757;SDS011;55747;51.998;4.466;2022-09-29T17:51:40;2.05;;;0.90;;
68757;SDS011;55747;51.998;4.466;2022-09-29T17:54:16;1.98;;;1.20;;
68757;SDS011;55747;51.998;4.466;2022-09-29T17:56:41;2.17;;;1.17;;
68757;SDS011;55747;51.998;4.466;2022-09-29T17:59:07;2.00;;;1.13;;
68757;SDS011;55747;51.998;4.466;2022-09-29T18:01:34;2.90;;;1.02;;
68757;SDS011;55747;51.998;4.466;2022-09-29T18:04:03;3.47;;;1.50;;
68757;SDS011;55747;51.998;4.466;2022-09-29T18:06:29;1.98;;;1.38;;
68757;SDS011;55747;51.998;4.466;2022-09-29T18:08:56;1.35;;;1.10;;
68757;SDS011;55747;51.998;4.466;2022-09-29T18:11:23;2.20;;;1.30;;
68757;SDS011;55747;51.998;4.466;2022-09-29T18:13:49;2.88;;;1.30;;